Time;durP1;ratioP1;P1;durP2;ratioP2;P2;SDS_P1;SDS_P2;PMS_P1;PMS_P2;Temp;Humidity;BMP_temperature;BMP_pressure;BME280_temperature;BME280_humidity;BME280_pressure;Samples;Min_cycle;Max_cycle;Signal;HPM_P1;HPM_P2
2023/10/27 00:03:44;;;;;;;2.20;1.60;;;;;;;11.23;100.00;97101.61;273536;1269;22191;-84
2023/10/27 00:09:46;;;;;;;2.90;1.50;;;;;;;11.23;100.00;97093.23;273442;1269;22370;-84
2023/10/27 00:15:48;;;;;;;1.90;1.40;;;;;;;11.24;100.00;97095.02;273088;1268;23380;-83
2023/10/27 00:21:50;;;;;;;3.20;1.30;;;;;;;11.24;100.00;97099.33;271894;1267;22590;-84
2023/10/27 00:27:52;;;;;;;1.90;1.30;;;;;;;11.27;100.00;97100.67;272424;1269;25478;-85
2023/10/27 00:33:54;;;;;;;2.70;1.60;;;;;;;11.28;100.00;97102.99;273390;1269;22388;-86
2023/10/27 00:39:56;;;;;;;2.10;1.30;;;;;;;11.27;100.00;97097.38;272643;1269;24075;-85
2023/10/27 00:45:58;;;;;;;1.50;1.30;;;;;;;11.29;100.00;97092.02;272335;1269;22731;-84
2023/10/27 00:52:00;;;;;;;3.30;1.50;;;;;;;11.31;100.00;97078.45;273473;1269;22295;-85
2023/10/27 00:58:03;;;;;;;4.20;1.50;;;;;;;11.33;100.00;97067.06;272089;1269;23773;-85
2023/10/27 01:04:05;;;;;;;2.90;1.40;;;;;;;11.31;100.00;97057.61;272588;1269;23032;-85
2023/10/27 01:10:07;;;;;;;2.20;1.60;;;;;;;11.30;100.00;97045.59;273409;1269;22372;-85
2023/10/27 01:16:11;;;;;;;2.10;1.50;;;;;;;11.27;100.00;97040.89;272178;1268;24316;-85
2023/10/27 01:22:35;;;;;;;5.00;1.30;;;;;;;11.21;100.00;97044.77;272973;1259;23640;-84
2023/10/27 01:28:37;;;;;;;1.90;1.30;;;;;;;11.17;100.00;97036.10;273672;1275;22237;-86
2023/10/27 01:34:39;;;;;;;2.50;1.70;;;;;;;11.05;100.00;97034.64;273320;1269;22316;-84
2023/10/27 01:40:41;;;;;;;2.60;1.50;;;;;;;10.93;100.00;97030.52;273784;1265;22397;-85
2023/10/27 01:47:23;;;;;;;2.00;1.30;;;;;;;10.83;100.00;97020.13;273514;1269;22651;-84
2023/10/27 01:53:50;;;;;;;2.30;1.40;;;;;;;10.66;100.00;97012.73;273448;1269;22199;-85
2023/10/27 01:59:52;;;;;;;2.30;1.60;;;;;;;10.50;100.00;97003.22;273039;1269;22562;-86
2023/10/27 02:06:02;;;;;;;1.90;1.50;;;;;;;10.33;100.00;96997.15;273431;1269;22376;-85
2023/10/27 02:12:05;;;;;;;2.80;1.80;;;;;;;10.12;100.00;96986.48;272708;1269;22406;-86
2023/10/27 02:18:07;;;;;;;6.80;4.70;;;;;;;9.97;100.00;96970.15;271793;1269;22621;-86
2023/10/27 02:24:30;;;;;;;11.20;7.10;;;;;;;9.86;100.00;96958.73;271522;1269;22433;-86
2023/10/27 02:30:39;;;;;;;5.50;3.40;;;;;;;9.74;100.00;96961.98;273322;1268;22205;-86
2023/10/27 02:36:40;;;;;;;4.20;2.70;;;;;;;9.66;100.00;96964.72;273643;1269;22562;-85
2023/10/27 02:43:33;;;;;;;5.10;3.20;;;;;;;9.56;100.00;96961.05;273577;1271;23720;-85
2023/10/27 02:49:35;;;;;;;5.80;3.40;;;;;;;9.46;100.00;96967.09;273238;1269;22199;-85
2023/10/27 02:55:44;;;;;;;4.40;3.30;;;;;;;9.37;100.00;96975.82;273513;1277;22213;-85
2023/10/27 03:01:47;;;;;;;7.00;4.30;;;;;;;9.24;100.00;96970.55;273630;1269;22283;-85
2023/10/27 03:07:49;;;;;;;7.00;4.10;;;;;;;9.17;100.00;96967.86;272799;1269;22362;-86
2023/10/27 03:14:06;;;;;;;6.70;4.30;;;;;;;9.08;100.00;96964.81;273599;1269;22745;-85
2023/10/27 03:20:15;;;;;;;4.60;3.40;;;;;;;8.95;100.00;96960.10;271399;1269;22322;-85
2023/10/27 03:26:17;;;;;;;3.30;2.50;;;;;;;8.83;100.00;96951.70;273409;1269;23221;-85
2023/10/27 03:32:19;;;;;;;6.10;3.20;;;;;;;8.72;100.00;96947.11;273070;1268;22416;-86
2023/10/27 03:39:17;;;;;;;;;;;;;;;;;;;;;
2023/10/27 03:45:16;;;;;;;5.50;2.50;;;;;;;8.49;100.00;96940.64;273297;1269;22398;-85
2023/10/27 03:51:22;;;;;;;4.50;3.20;;;;;;;8.43;100.00;96938.94;273692;1270;22170;-85
2023/10/27 03:57:24;;;;;;;4.90;3.50;;;;;;;8.42;100.00;96937.61;272594;1270;22357;-85
2023/10/27 04:03:27;;;;;;;5.20;3.00;;;;;;;8.42;100.00;96936.45;272337;1269;22581;-85
2023/10/27 04:09:29;;;;;;;5.30;3.90;;;;;;;8.40;100.00;96934.92;273597;1269;22141;-86
2023/10/27 04:15:31;;;;;;;5.50;3.40;;;;;;;8.39;100.00;96926.14;270350;1269;25377;-85
2023/10/27 04:21:38;;;;;;;4.30;2.80;;;;;;;8.32;100.00;96923.66;270636;1268;22395;-86
2023/10/27 04:27:48;;;;;;;5.40;3.50;;;;;;;8.32;100.00;96921.55;272288;1266;95935;31
2023/10/27 04:34:14;;;;;;;5.20;3.50;;;;;;;8.32;100.00;96909.48;272623;1269;22361;-82
2023/10/27 04:40:44;;;;;;;6.90;4.40;;;;;;;8.31;100.00;96902.88;272963;1269;22399;-83
2023/10/27 04:47:19;;;;;;;11.70;5.70;;;;;;;8.32;100.00;96894.46;273605;1269;22624;-83
2023/10/27 04:53:27;;;;;;;7.50;5.90;;;;;;;8.37;100.00;96884.65;273058;1269;22306;-83
2023/10/27 04:59:56;;;;;;;11.20;6.90;;;;;;;8.42;100.00;96878.26;273460;1269;22197;-82
2023/10/27 05:06:43;;;;;;;8.70;6.30;;;;;;;8.48;100.00;96871.78;273360;1269;22185;-81
2023/10/27 05:13:26;;;;;;;8.60;5.20;;;;;;;8.46;100.00;96866.44;273857;1259;22194;-82
2023/10/27 05:19:48;;;;;;;8.90;5.90;;;;;;;8.45;100.00;96862.64;273484;1272;22233;-83
2023/10/27 05:26:25;;;;;;;12.80;5.80;;;;;;;8.47;100.00;96862.23;273341;1269;23213;-83
2023/10/27 05:32:47;;;;;;;9.10;5.40;;;;;;;8.51;100.00;96866.05;273083;1267;22205;-82
2023/10/27 05:39:31;;;;;;;11.00;5.70;;;;;;;8.58;100.00;96870.93;273344;1269;22388;-83
2023/10/27 05:46:24;;;;;;;14.40;6.30;;;;;;;8.65;100.00;96861.31;272888;1269;22507;-83
2023/10/27 05:53:06;;;;;;;17.10;6.00;;;;;;;8.70;100.00;96850.17;270746;1269;24284;-83
2023/10/27 05:59:29;;;;;;;10.80;6.60;;;;;;;8.71;100.00;96844.56;268783;1269;5474398;-83
2023/10/27 06:05:31;;;;;;;17.90;7.80;;;;;;;8.71;100.00;96845.32;273415;1269;22388;-83
2023/10/27 06:11:33;;;;;;;13.30;7.20;;;;;;;8.75;100.00;96850.11;271187;1269;23369;-83
2023/10/27 06:17:38;;;;;;;11.40;6.40;;;;;;;8.74;100.00;96858.14;271807;1269;22562;-83
2023/10/27 06:23:40;;;;;;;8.70;6.50;;;;;;;8.78;100.00;96860.65;271163;1269;24185;-83
2023/10/27 06:29:42;;;;;;;10.30;5.80;;;;;;;8.89;100.00;96860.71;271970;1269;22580;-83
2023/10/27 06:36:25;;;;;;;11.10;8.10;;;;;;;8.99;100.00;96854.70;272486;1269;23028;-83
2023/10/27 06:43:14;;;;;;;9.30;5.90;;;;;;;9.07;100.00;96855.18;273106;1272;22193;-83
2023/10/27 06:49:37;;;;;;;9.30;6.30;;;;;;;9.13;100.00;96852.35;272351;1270;22184;-83
2023/10/27 06:55:39;;;;;;;10.40;8.00;;;;;;;9.18;100.00;96851.65;270853;1269;26021;-83
2023/10/27 07:01:44;;;;;;;12.90;7.90;;;;;;;9.24;100.00;96849.52;271771;1268;22392;-83
2023/10/27 07:08:26;;;;;;;10.80;7.80;;;;;;;9.32;100.00;96841.16;273304;1269;22190;-82
2023/10/27 07:15:09;;;;;;;9.70;6.80;;;;;;;9.41;100.00;96833.50;272886;1270;22411;-83
2023/10/27 07:21:12;;;;;;;17.70;9.90;;;;;;;9.49;100.00;96827.66;273264;1269;23889;-82
2023/10/27 07:27:14;;;;;;;13.40;8.40;;;;;;;9.53;100.00;96833.83;272673;1269;22402;-82
2023/10/27 07:33:16;;;;;;;13.10;8.40;;;;;;;9.58;100.00;96828.19;273419;1269;22815;-82
2023/10/27 07:39:38;;;;;;;11.80;8.00;;;;;;;9.65;100.00;96826.95;273573;1265;22171;-82
2023/10/27 07:45:40;;;;;;;10.80;7.60;;;;;;;9.71;100.00;96819.35;271653;1269;22546;-83
2023/10/27 07:51:42;;;;;;;14.50;7.00;;;;;;;9.77;100.00;96819.01;271670;1269;22406;-84
2023/10/27 07:57:44;;;;;;;10.90;7.60;;;;;;;9.85;100.00;96816.50;271925;1269;22554;-82
2023/10/27 08:03:46;;;;;;;11.30;6.90;;;;;;;9.94;100.00;96805.77;271667;1269;22543;-83
2023/10/27 08:10:28;;;;;;;8.90;6.80;;;;;;;10.01;100.00;96799.59;271753;1265;22207;-83
2023/10/27 08:16:37;;;;;;;10.40;6.20;;;;;;;10.09;100.00;96799.12;271625;1269;22563;-84
2023/10/27 08:22:39;;;;;;;9.50;7.30;;;;;;;10.17;100.00;96789.35;271428;1269;22689;-82
2023/10/27 08:29:02;;;;;;;11.80;8.10;;;;;;;10.25;100.00;96778.55;271542;1269;22569;-83
2023/10/27 08:35:04;;;;;;;14.20;9.80;;;;;;;10.34;100.00;96772.41;270545;1269;22197;-83
2023/10/27 08:41:26;;;;;;;16.90;9.00;;;;;;;10.40;100.00;96774.52;273856;1266;22847;-83
2023/10/27 08:47:31;;;;;;;11.10;7.40;;;;;;;10.46;100.00;96762.73;273160;1263;22377;-83
2023/10/27 08:53:53;;;;;;;12.10;7.30;;;;;;;10.50;100.00;96756.23;273838;1269;22388;-83
2023/10/27 08:59:56;;;;;;;8.20;6.50;;;;;;;10.56;100.00;96748.65;272651;1269;23424;-83
2023/10/27 09:05:58;;;;;;;11.90;7.20;;;;;;;10.62;100.00;96748.27;273090;1269;22358;-83
2023/10/27 09:12:42;;;;;;;8.00;7.10;;;;;;;10.68;100.00;96738.68;273641;1276;23251;-83
2023/10/27 09:19:28;;;;;;;15.50;7.80;;;;;;;10.73;100.00;96731.50;273811;1276;22267;-83
2023/10/27 09:25:31;;;;;;;9.30;7.10;;;;;;;10.78;100.00;96729.72;273191;1269;22505;-84
2023/10/27 09:31:45;;;;;;;9.20;6.80;;;;;;;10.81;100.00;96725.81;271772;1269;22219;-83
2023/10/27 09:37:48;;;;;;;9.40;7.30;;;;;;;10.84;100.00;96712.14;271342;1269;22605;-83
2023/10/27 09:44:18;;;;;;;9.10;7.10;;;;;;;10.86;100.00;96708.73;273629;1269;22229;-83
2023/10/27 09:51:01;;;;;;;13.10;8.70;;;;;;;10.88;100.00;96698.74;273849;1269;22270;-82
2023/10/27 09:57:04;;;;;;;13.70;9.20;;;;;;;10.86;100.00;96689.73;272932;1269;22594;-83
2023/10/27 10:27:12;;;;;;;12.60;8.50;;;;;;;10.77;100.00;96636.47;273884;1269;22166;-83
2023/10/27 10:33:31;;;;;;;12.00;8.90;;;;;;;10.76;100.00;96623.45;273466;1269;22179;-83
2023/10/27 10:40:12;;;;;;;10.70;8.70;;;;;;;10.76;100.00;96615.94;273309;1269;22465;-84
2023/10/27 10:46:15;;;;;;;16.10;8.30;;;;;;;10.78;100.00;96597.73;273133;1272;22274;-83
2023/10/27 10:52:19;;;;;;;14.60;9.80;;;;;;;10.81;100.00;96581.31;273207;1271;22341;-83
2023/10/27 10:58:31;;;;;;;12.60;8.90;;;;;;;10.83;100.00;96560.17;273311;1271;22925;-83
2023/10/27 11:04:34;;;;;;;12.20;10.80;;;;;;;10.85;100.00;96540.71;273352;1278;22239;-83
2023/10/27 11:10:36;;;;;;;18.30;11.60;;;;;;;10.85;100.00;96529.05;273209;1269;22463;-84
2023/10/27 11:16:38;;;;;;;15.30;11.10;;;;;;;10.86;100.00;96521.45;273351;1266;22371;-84
2023/10/27 11:22:40;;;;;;;13.50;10.40;;;;;;;10.86;100.00;96511.83;273641;1275;22198;-83
2023/10/27 11:28:46;;;;;;;14.10;9.10;;;;;;;10.85;100.00;96503.09;273211;1270;22451;-84
2023/10/27 11:34:57;;;;;;;12.80;9.60;;;;;;;10.84;100.00;96496.33;273488;1260;22831;-83
2023/10/27 11:41:10;;;;;;;12.60;9.60;;;;;;;10.81;100.00;96492.56;271542;1269;23371;-84
2023/10/27 11:47:12;;;;;;;13.10;9.60;;;;;;;10.84;100.00;96496.88;271468;1270;22315;-84
2023/10/27 11:53:17;;;;;;;12.60;8.90;;;;;;;10.86;100.00;96499.70;273361;1272;22416;-84
2023/10/27 11:59:20;;;;;;;13.80;10.70;;;;;;;10.85;100.00;96504.17;273616;1269;22209;-84
2023/10/27 12:05:22;;;;;;;15.70;11.20;;;;;;;10.86;100.00;96506.52;273453;1269;22219;-84
2023/10/27 12:11:24;;;;;;;14.90;12.20;;;;;;;10.87;100.00;96510.77;273179;1269;22336;-85
2023/10/27 12:17:25;;;;;;;12.70;10.30;;;;;;;10.89;100.00;96508.51;272059;1270;22380;-84
2023/10/27 12:23:32;;;;;;;14.60;10.00;;;;;;;10.92;100.00;96509.55;273288;1269;22435;-85
2023/10/27 12:29:34;;;;;;;19.20;7.70;;;;;;;10.93;100.00;96498.95;273221;1270;22939;-84
2023/10/27 12:35:37;;;;;;;14.30;10.30;;;;;;;10.94;100.00;96487.98;273126;1270;22228;-84
2023/10/27 12:41:40;;;;;;;19.30;12.80;;;;;;;10.94;100.00;96471.71;272883;1269;22942;-84
2023/10/27 12:47:47;;;;;;;21.90;14.60;;;;;;;10.93;100.00;96453.67;273024;1270;22391;-84
2023/10/27 12:53:52;;;;;;;26.50;15.70;;;;;;;10.94;100.00;96429.32;273008;1269;22443;-84
2023/10/27 12:59:54;;;;;;;22.70;15.50;;;;;;;10.97;100.00;96425.15;273044;1270;22568;-84
2023/10/27 13:06:02;;;;;;;21.30;16.30;;;;;;;11.00;100.00;96421.30;273069;1270;22305;-84
2023/10/27 13:12:08;;;;;;;21.00;15.10;;;;;;;11.05;100.00;96418.48;272543;1270;22859;-84
2023/10/27 13:18:11;;;;;;;22.60;14.20;;;;;;;11.11;100.00;96416.34;272196;1270;22353;-84
2023/10/27 13:24:12;;;;;;;22.60;14.70;;;;;;;11.14;100.00;96413.73;270855;1270;22354;-85
2023/10/27 13:30:15;;;;;;;19.00;14.00;;;;;;;11.17;100.00;96414.98;272854;1269;22358;-84
2023/10/27 13:36:20;;;;;;;18.00;13.20;;;;;;;11.20;100.00;96410.58;273160;1270;22960;-85
2023/10/27 13:42:23;;;;;;;21.40;13.90;;;;;;;11.23;100.00;96411.67;273138;1269;22228;-85
2023/10/27 13:48:27;;;;;;;19.40;13.30;;;;;;;11.25;100.00;96411.98;273366;1270;22187;-84
2023/10/27 13:54:29;;;;;;;20.40;14.30;;;;;;;11.25;100.00;96420.11;273249;1264;22281;-84
2023/10/27 14:00:55;;;;;;;21.90;15.60;;;;;;;11.25;100.00;96429.82;271402;1267;23341;-84
2023/10/27 14:06:57;;;;;;;16.30;12.90;;;;;;;11.26;100.00;96434.02;271076;1269;22520;-84
2023/10/27 14:13:00;;;;;;;16.80;12.60;;;;;;;11.26;100.00;96416.20;271423;1270;22684;-85
2023/10/27 14:19:02;;;;;;;15.00;12.10;;;;;;;11.27;100.00;96436.89;271840;1264;22503;-84
2023/10/27 14:25:05;;;;;;;14.10;11.50;;;;;;;11.27;100.00;96446.18;271103;1270;22412;-84
2023/10/27 14:31:07;;;;;;;14.30;10.90;;;;;;;11.27;100.00;96465.83;272875;1269;23950;-87
2023/10/27 14:37:12;;;;;;;12.20;10.10;;;;;;;11.26;100.00;96466.55;271390;1269;22380;-84
2023/10/27 14:43:14;;;;;;;12.50;10.30;;;;;;;11.25;100.00;96456.87;271022;1270;23678;-85
2023/10/27 14:49:17;;;;;;;12.00;9.90;;;;;;;11.24;100.00;96459.04;271231;1269;22482;-84
2023/10/27 14:55:19;;;;;;;14.30;9.60;;;;;;;11.23;100.00;96458.21;272485;1269;22244;-84
2023/10/27 15:01:20;;;;;;;15.00;10.30;;;;;;;11.24;100.00;96468.18;271793;1268;25490;-84
2023/10/27 15:07:24;;;;;;;17.40;12.80;;;;;;;11.26;100.00;96478.21;271088;1269;22227;-84
2023/10/27 15:13:28;;;;;;;16.90;11.70;;;;;;;11.26;100.00;96484.39;270837;1269;22571;-84
2023/10/27 15:19:31;;;;;;;15.90;10.30;;;;;;;11.25;100.00;96491.32;272509;1269;22337;-84
2023/10/27 15:25:39;;;;;;;16.00;10.10;;;;;;;11.21;100.00;96500.27;273400;1270;22185;-84
2023/10/27 15:31:41;;;;;;;14.80;10.30;;;;;;;11.17;100.00;96513.23;273596;1269;22237;-83
2023/10/27 15:37:52;;;;;;;15.80;10.70;;;;;;;11.14;100.00;96526.69;273220;1270;23434;-84
2023/10/27 15:43:56;;;;;;;19.50;11.20;;;;;;;11.13;100.00;96535.82;272184;1269;22308;-84
2023/10/27 15:49:59;;;;;;;16.90;9.90;;;;;;;11.10;100.00;96541.23;273145;1269;22466;-83
2023/10/27 15:56:02;;;;;;;12.00;8.50;;;;;;;11.07;100.00;96558.11;273150;1269;22218;-84
2023/10/27 16:02:06;;;;;;;14.20;8.30;;;;;;;11.05;100.00;96577.80;273189;1269;23226;-85
2023/10/27 16:08:27;;;;;;;13.70;9.80;;;;;;;11.03;100.00;96592.96;273448;1270;22749;-83
2023/10/27 16:14:29;;;;;;;14.80;11.10;;;;;;;11.01;100.00;96602.10;272480;1270;22230;-83
2023/10/27 16:20:31;;;;;;;16.00;11.60;;;;;;;10.99;100.00;96612.54;272116;1269;22405;-84
2023/10/27 16:26:33;;;;;;;17.70;12.10;;;;;;;10.99;100.00;96627.05;272361;1269;22506;-83
2023/10/27 16:32:35;;;;;;;18.00;11.90;;;;;;;10.98;100.00;96642.24;272943;1269;22177;-84
2023/10/27 16:38:37;;;;;;;16.40;12.10;;;;;;;10.98;100.00;96651.69;271306;1269;22566;-84
2023/10/27 16:44:38;;;;;;;20.30;12.90;;;;;;;11.00;100.00;96662.67;271305;1269;22183;-84
2023/10/27 16:50:40;;;;;;;23.60;13.50;;;;;;;11.00;100.00;96668.83;271932;1269;24328;-84
2023/10/27 16:56:42;;;;;;;19.10;12.40;;;;;;;11.00;100.00;96682.05;272607;1268;22576;-84
2023/10/27 17:02:45;;;;;;;16.20;11.90;;;;;;;11.00;100.00;96694.27;272164;1266;22344;-84
2023/10/27 17:08:47;;;;;;;17.10;12.10;;;;;;;10.99;100.00;96707.04;273412;1270;22192;-83
2023/10/27 17:15:09;;;;;;;20.00;13.90;;;;;;;10.98;100.00;96721.79;273285;1271;22338;-83
2023/10/27 17:21:13;;;;;;;21.30;14.40;;;;;;;10.95;100.00;96726.70;273108;1263;22364;-84
2023/10/27 17:27:15;;;;;;;21.40;15.30;;;;;;;10.93;100.00;96740.84;273320;1270;22195;-84
2023/10/27 17:33:17;;;;;;;18.70;12.20;;;;;;;10.90;100.00;96754.73;273193;1269;23165;-84
2023/10/27 17:39:28;;;;;;;15.80;11.90;;;;;;;10.87;100.00;96767.52;273132;1271;23384;-84
2023/10/27 17:45:35;;;;;;;17.40;10.10;;;;;;;10.84;100.00;96779.39;272938;1268;22311;-83
2023/10/27 17:51:37;;;;;;;13.10;9.40;;;;;;;10.78;100.00;96784.14;273048;1270;22381;-84
2023/10/27 17:57:40;;;;;;;13.00;9.40;;;;;;;10.72;100.00;96794.78;271177;1269;493108;-84
2023/10/27 18:03:42;;;;;;;11.50;8.40;;;;;;;10.66;100.00;96796.26;271659;1259;23166;-83
2023/10/27 18:09:45;;;;;;;14.80;8.80;;;;;;;10.62;100.00;96806.52;271062;1269;22539;-84
2023/10/27 18:15:51;;;;;;;14.00;9.20;;;;;;;10.55;100.00;96810.82;272022;1269;22213;-84
2023/10/27 18:21:53;;;;;;;14.40;9.00;;;;;;;10.48;100.00;96819.13;273029;1269;22393;-84
2023/10/27 18:28:11;;;;;;;15.90;9.60;;;;;;;10.42;100.00;96826.69;271906;1269;23594;-84
2023/10/27 18:34:13;;;;;;;17.20;10.50;;;;;;;10.38;100.00;96832.32;272828;1269;22451;-84
2023/10/27 18:40:16;;;;;;;15.00;10.80;;;;;;;10.34;100.00;96836.23;272946;1269;22354;-84
2023/10/27 18:46:18;;;;;;;17.10;10.60;;;;;;;10.29;100.00;96843.94;273454;1269;22304;-84
2023/10/27 18:52:19;;;;;;;13.50;10.30;;;;;;;10.27;100.00;96847.34;272101;1265;23031;-84
2023/10/27 18:58:36;;;;;;;19.50;12.60;;;;;;;10.27;100.00;96854.45;273145;1269;22328;-84
2023/10/27 19:04:41;;;;;;;18.70;13.90;;;;;;;10.28;100.00;96859.44;273304;1269;23273;-84
2023/10/27 19:10:46;;;;;;;21.30;15.70;;;;;;;10.27;100.00;96867.41;273696;1270;23118;-84
2023/10/27 19:16:57;;;;;;;19.20;14.70;;;;;;;10.25;100.00;96884.10;273415;1269;22342;-84
2023/10/27 19:23:19;;;;;;;18.70;13.70;;;;;;;10.20;100.00;96893.43;273408;1269;22352;-83
2023/10/27 19:29:21;;;;;;;17.70;11.50;;;;;;;10.12;100.00;96905.39;273426;1269;22291;-82
2023/10/27 19:35:26;;;;;;;17.60;11.00;;;;;;;10.08;100.00;96913.42;273075;1269;22350;-85
2023/10/27 19:41:31;;;;;;;13.60;10.70;;;;;;;10.05;100.00;96919.02;272202;1266;22523;-83
2023/10/27 19:47:51;;;;;;;16.70;10.20;;;;;;;10.02;100.00;96927.58;272444;1269;22911;-84
2023/10/27 19:53:57;;;;;;;17.40;11.40;;;;;;;10.00;100.00;96929.33;273020;1258;23608;-84
2023/10/27 20:00:04;;;;;;;12.40;8.50;;;;;;;9.99;100.00;96935.84;271695;1269;22494;-84
2023/10/27 20:06:26;;;;;;;;;;;;;;;;;;;;;
2023/10/27 20:13:01;;;;;;;18.70;11.80;;;;;;;9.97;100.00;96945.70;272910;1269;22263;-84
2023/10/27 20:19:09;;;;;;;24.10;14.30;;;;;;;9.98;100.00;96954.77;272749;1269;22203;-84
2023/10/27 20:25:13;;;;;;;23.10;15.10;;;;;;;9.99;100.00;96965.91;272966;1269;22303;-84
2023/10/27 20:31:18;;;;;;;19.60;13.60;;;;;;;9.97;100.00;96973.84;271728;1269;22333;-84
2023/10/27 20:37:20;;;;;;;21.60;13.80;;;;;;;9.95;100.00;96984.80;272114;1269;22513;-85
2023/10/27 20:43:22;;;;;;;20.40;12.90;;;;;;;9.95;100.00;96992.53;271866;1269;22649;-84
2023/10/27 20:49:24;;;;;;;19.40;14.10;;;;;;;9.90;100.00;97000.34;273336;1270;22202;-84
2023/10/27 20:55:26;;;;;;;20.40;14.00;;;;;;;9.88;100.00;97003.04;273270;1272;22512;-85
2023/10/27 21:01:28;;;;;;;22.80;15.90;;;;;;;9.89;100.00;97006.69;273494;1270;22289;-84
2023/10/27 21:08:07;;;;;;;23.20;15.50;;;;;;;9.89;100.00;97014.73;273605;1259;22280;-83
2023/10/27 21:14:09;;;;;;;21.10;15.40;;;;;;;9.89;100.00;97017.39;272479;1270;22562;-84
2023/10/27 21:20:13;;;;;;;20.90;15.00;;;;;;;9.91;100.00;97028.92;273215;1269;22409;-85
2023/10/27 21:26:15;;;;;;;23.60;14.50;;;;;;;9.91;100.00;97034.55;272401;1269;23037;-84
2023/10/27 21:32:17;;;;;;;27.80;15.50;;;;;;;9.89;100.00;97042.13;273458;1269;22216;-84
2023/10/27 21:38:24;;;;;;;23.50;15.20;;;;;;;9.90;100.00;97046.34;273353;1272;22927;-84
2023/10/27 21:44:26;;;;;;;21.00;14.50;;;;;;;9.93;100.00;97059.57;273487;1270;23278;-84
2023/10/27 21:50:28;;;;;;;21.70;14.90;;;;;;;9.95;100.00;97066.48;272239;1270;22520;-84
2023/10/27 21:56:31;;;;;;;24.90;16.00;;;;;;;9.96;100.00;97070.70;270373;1269;24285;-84
2023/10/27 22:02:55;;;;;;;26.20;16.70;;;;;;;9.96;100.00;97077.26;271847;1269;24928;-84
2023/10/27 22:08:57;;;;;;;24.30;16.30;;;;;;;9.97;100.00;97082.39;273515;1275;22186;-84
2023/10/27 22:15:12;;;;;;;22.70;16.10;;;;;;;9.98;100.00;97090.77;272104;1270;23239;-85
2023/10/27 22:21:33;;;;;;;22.00;16.00;;;;;;;9.98;100.00;97098.68;273630;1277;22383;-84
2023/10/27 22:27:36;;;;;;;20.50;14.40;;;;;;;9.98;100.00;97108.44;273477;1272;22991;-84
2023/10/27 22:33:37;;;;;;;18.90;12.50;;;;;;;9.97;100.00;97116.19;273110;1269;22300;-84
2023/10/27 22:39:39;;;;;;;13.80;9.60;;;;;;;9.95;100.00;97125.20;273615;1269;22334;-84
2023/10/27 22:45:55;;;;;;;10.40;7.50;;;;;;;9.94;100.00;97132.27;273719;1269;22372;-84
2023/10/27 22:51:57;;;;;;;7.90;5.00;;;;;;;9.92;100.00;97133.15;273798;1271;22351;-84
2023/10/27 22:58:00;;;;;;;9.40;5.10;;;;;;;9.89;100.00;97140.38;273559;1269;22333;-85
2023/10/27 23:04:03;;;;;;;8.70;4.00;;;;;;;9.85;100.00;97144.11;272580;1253;22298;-83
2023/10/27 23:10:06;;;;;;;8.80;3.70;;;;;;;9.83;100.00;97151.33;273574;1270;22488;-84
2023/10/27 23:16:13;;;;;;;7.80;4.30;;;;;;;9.81;100.00;97156.20;273513;1269;23774;-84
2023/10/27 23:22:15;;;;;;;8.60;3.50;;;;;;;9.78;100.00;97155.62;271942;1269;22524;-85
2023/10/27 23:28:17;;;;;;;4.90;3.40;;;;;;;9.74;100.00;97154.73;271338;1269;22304;-85
2023/10/27 23:34:18;;;;;;;7.60;3.70;;;;;;;9.70;100.00;97164.94;271416;1269;22990;-85
2023/10/27 23:40:21;;;;;;;4.80;3.60;;;;;;;9.68;100.00;97175.82;271290;1265;24335;-84
2023/10/27 23:46:23;;;;;;;8.10;4.10;;;;;;;9.68;100.00;97185.42;270500;1269;22539;-84
2023/10/27 23:52:24;;;;;;;8.20;4.30;;;;;;;9.68;100.00;97195.48;270443;1269;22611;-83
2023/10/27 23:58:28;;;;;;;6.90;4.10;;;;;;;9.70;100.00;97203.51;270281;1269;23241;-84
